createdAt,value
2018-07-28T00:00:12.117Z,75
2018-07-28T00:01:12.024Z,74.96
2018-07-28T00:02:12.002Z,74.29
2018-07-28T00:03:12.260Z,75.16
2018-07-28T00:04:12.260Z,74.58
2018-07-28T00:05:12.266Z,75.84
2018-07-28T00:06:12.278Z,78.54
2018-07-28T00:07:12.316Z,78.64
2018-07-28T00:08:12.279Z,77.48
2018-07-28T00:09:12.277Z,76.42
2018-07-28T00:10:12.290Z,77
2018-07-28T00:11:12.039Z,77
2018-07-28T00:12:12.307Z,77.19
2018-07-28T00:13:12.301Z,77.96
2018-07-28T00:14:12.045Z,78.44
2018-07-28T00:15:12.056Z,78.06
2018-07-28T00:16:12.311Z,79.99
2018-07-28T00:17:12.310Z,80.95
2018-07-28T00:18:12.310Z,81.15
2018-07-28T00:19:12.314Z,80.76
2018-07-28T00:20:12.322Z,81.63
2018-07-28T00:21:12.070Z,82.69
2018-07-28T00:22:12.327Z,82.5
2018-07-28T00:23:12.076Z,82.4
2018-07-28T00:24:12.339Z,82.75
2018-07-28T00:25:12.080Z,81.01
2018-07-28T00:26:12.336Z,81.11
2018-07-28T00:27:12.350Z,80.91
2018-07-28T00:28:12.092Z,81.4
2018-07-28T00:29:12.352Z,81.59
2018-07-28T00:30:12.347Z,82.75
2018-07-28T00:31:12.356Z,82.36
2018-07-28T00:32:12.115Z,81.2
2018-07-28T00:33:12.359Z,78.11
2018-07-28T00:34:12.362Z,78.11
2018-07-28T00:35:12.396Z,77.63
2018-07-28T00:36:12.376Z,77.15
2018-07-28T00:37:12.369Z,76.86
2018-07-28T00:38:12.373Z,77.15
2018-07-28T00:39:12.121Z,77.53
2018-07-28T00:40:12.387Z,77.92
2018-07-28T00:41:12.387Z,77.53
2018-07-28T00:42:12.385Z,77.63
2018-07-28T00:43:12.399Z,77.73
2018-07-28T00:44:12.394Z,77.44
2018-07-28T00:45:12.404Z,77.15
2018-07-28T00:46:12.143Z,77.15
2018-07-28T00:47:12.151Z,77.34
2018-07-28T00:48:12.408Z,77.15
2018-07-28T00:49:12.418Z,76.86
2018-07-28T00:50:12.162Z,76.67
2018-07-28T00:51:12.427Z,76.57
2018-07-28T00:52:12.424Z,76.28
2018-07-28T00:53:12.428Z,76.09
2018-07-28T00:54:12.431Z,75.79
2018-07-28T00:55:12.171Z,76.09
2018-07-28T00:56:12.433Z,75.51
2018-07-28T00:57:12.444Z,75.6
2018-07-28T00:58:12.440Z,75.22
2018-07-28T00:59:12.443Z,75.79
2018-07-28T01:00:12.265Z,75.79
2018-07-28T01:01:12.487Z,76.47
2018-07-28T01:02:12.452Z,76.47
2018-07-28T01:03:12.205Z,76.37
2018-07-28T01:04:12.205Z,76.28
2018-07-28T01:05:12.718Z,76.18
2018-07-28T01:06:12.214Z,76.18
2018-07-28T01:07:12.486Z,76.18
2018-07-28T01:08:12.471Z,75.99
2018-07-28T01:09:12.483Z,76.76
2018-07-28T01:10:12.275Z,78.11
2018-07-28T01:11:12.231Z,78.5
2018-07-28T01:12:12.494Z,75.99
2018-07-28T01:13:12.516Z,76.28
2018-07-28T01:14:12.243Z,77.25
2018-07-28T01:15:12.388Z,78.11
2018-07-28T01:16:12.511Z,78.89
2018-07-28T01:17:12.246Z,78.79
2018-07-28T01:18:12.258Z,78.02
2018-07-28T01:19:12.250Z,77.69
2018-07-28T01:20:12.440Z,77.92
2018-07-28T01:21:12.520Z,77.15
2018-07-28T01:22:12.516Z,77.34
2018-07-28T01:23:12.525Z,76.76
2018-07-28T01:24:12.526Z,76.57
2018-07-28T01:25:12.637Z,76.76
2018-07-28T01:26:12.278Z,76.47
2018-07-28T01:27:12.537Z,76.37
2018-07-28T01:28:12.286Z,76.15
2018-07-28T01:29:12.537Z,76.37
2018-07-28T01:30:12.399Z,76.37
2018-07-28T01:31:12.553Z,76.37
2018-07-28T01:32:12.295Z,76.34
2018-07-28T01:33:12.552Z,76.53
2018-07-28T01:34:12.555Z,76.57
2018-07-28T01:35:12.719Z,76.43
2018-07-28T01:36:12.582Z,76.47
2018-07-28T01:37:12.583Z,76.47
2018-07-28T01:38:12.319Z,76.15
2018-07-28T01:39:12.327Z,76.53
2018-07-28T01:40:12.395Z,76.63
2018-07-28T01:41:12.583Z,77.21
2018-07-28T01:42:12.584Z,77.3
2018-07-28T01:43:12.325Z,77.3
2018-07-28T01:44:12.590Z,77.11
2018-07-28T01:45:12.789Z,77.4
2018-07-28T01:46:12.594Z,76.82
2018-07-28T01:47:12.607Z,77.69
2018-07-28T01:48:12.344Z,78.08
2018-07-28T01:49:12.607Z,77.78
2018-07-28T01:50:12.729Z,77.69
2018-07-28T01:51:12.611Z,77.88
2018-07-28T01:52:12.372Z,78.66
2018-07-28T01:53:12.626Z,77.78
2018-07-28T01:54:12.625Z,77.78
2018-07-28T01:55:12.401Z,77.88
2018-07-28T01:56:12.370Z,79.14
2018-07-28T01:57:12.633Z,79.43
2018-07-28T01:58:12.377Z,79.14
2018-07-28T01:59:12.380Z,79.81
2018-07-28T02:00:12.547Z,79.52
2018-07-28T02:01:12.660Z,79.24
2018-07-28T02:02:12.404Z,78.17
2018-07-28T02:03:12.391Z,78.08
2018-07-28T02:04:12.657Z,77.78
2018-07-28T02:05:12.550Z,77.88
2018-07-28T02:06:12.418Z,77.78
2018-07-28T02:07:12.659Z,77.88
2018-07-28T02:08:12.666Z,78.17
2018-07-28T02:09:12.657Z,78.08
2018-07-28T02:10:12.532Z,78.08
2018-07-28T02:11:12.414Z,77.88
2018-07-28T02:12:12.671Z,77.78
2018-07-28T02:13:12.428Z,78.27
2018-07-28T02:14:12.679Z,78.08
2018-07-28T02:15:12.753Z,77.98
2018-07-28T02:16:12.688Z,77.98
2018-07-28T02:17:12.687Z,77.69
2018-07-28T02:18:12.436Z,78.08
2018-07-28T02:19:12.713Z,77.88
2018-07-28T02:20:12.759Z,77.98
2018-07-28T02:21:12.456Z,77.98
2018-07-28T02:22:12.450Z,77.88
2018-07-28T02:23:12.449Z,77.88
2018-07-28T02:24:12.723Z,77.88
2018-07-28T02:25:13.203Z,78.08
2018-07-28T02:26:12.738Z,77.98
2018-07-28T02:27:12.462Z,78.03
2018-07-28T02:28:12.721Z,77.94
2018-07-28T02:29:12.737Z,78.52
2018-07-28T02:30:12.737Z,78.17
2018-07-28T02:31:12.740Z,78.42
2018-07-28T02:32:12.477Z,78.56
2018-07-28T02:33:12.737Z,80.1
2018-07-28T02:34:12.744Z,80.45
2018-07-28T02:35:12.850Z,79.77
2018-07-28T02:36:12.749Z,80.45
2018-07-28T02:37:12.740Z,79.77
2018-07-28T02:38:12.491Z,79.81
2018-07-28T02:39:12.493Z,78.94
2018-07-28T02:40:12.848Z,79.14
2018-07-28T02:41:12.758Z,79.1
2018-07-28T02:42:12.510Z,78.71
2018-07-28T02:43:12.763Z,78.85
2018-07-28T02:44:12.771Z,78.56
2018-07-28T02:45:12.915Z,78.33
2018-07-28T02:46:12.516Z,78.23
2018-07-28T02:47:12.779Z,78.23
2018-07-28T02:48:12.789Z,77.98
2018-07-28T02:49:12.779Z,78.56
2018-07-28T02:50:13.003Z,78.52
2018-07-28T02:51:12.785Z,78.71
2018-07-28T02:52:12.545Z,79.72
2018-07-28T02:53:12.795Z,80.78
2018-07-28T02:54:12.802Z,81.35
2018-07-28T02:55:12.609Z,81.45
2018-07-28T02:56:12.801Z,81.74
2018-07-28T02:57:12.550Z,82.51
2018-07-28T02:58:12.555Z,81.93
2018-07-28T02:59:12.811Z,80.64
2018-07-28T03:00:13.184Z,81.12
2018-07-28T03:01:12.817Z,80.74
2018-07-28T03:02:12.818Z,80.74
2018-07-28T03:03:12.827Z,79.97
2018-07-28T03:04:12.823Z,79.87
2018-07-28T03:05:12.630Z,79.77
2018-07-28T03:06:12.829Z,80.35
2018-07-28T03:07:12.838Z,81.8
2018-07-28T03:08:12.851Z,82.57
2018-07-28T03:09:12.575Z,82.76
2018-07-28T03:10:13.095Z,82.86
2018-07-28T03:11:12.838Z,82.28
2018-07-28T03:12:12.591Z,82.18
2018-07-28T03:13:12.855Z,82.14
2018-07-28T03:14:12.850Z,81.85
2018-07-28T03:15:12.870Z,81.7
2018-07-28T03:16:12.613Z,81.47
2018-07-28T03:17:12.866Z,81.76
2018-07-28T03:18:12.864Z,81.47
2018-07-28T03:19:12.865Z,81.09
2018-07-28T03:20:12.860Z,80.79
2018-07-28T03:21:12.868Z,80.93
2018-07-28T03:22:12.613Z,80.93
2018-07-28T03:23:12.876Z,80.83
2018-07-28T03:24:12.901Z,81.22
2018-07-28T03:25:13.009Z,81.32
2018-07-28T03:26:12.931Z,80.93
2018-07-28T03:27:12.907Z,80.64
2018-07-28T03:28:12.633Z,80.93
2018-07-28T03:29:12.892Z,81.8
2018-07-28T03:30:12.953Z,81.37
2018-07-28T03:31:12.897Z,81.57
2018-07-28T03:32:12.892Z,81.18
2018-07-28T03:33:12.948Z,81.66
2018-07-28T03:34:12.916Z,83.4
2018-07-28T03:35:13.101Z,83.4
2018-07-28T03:36:12.902Z,83.4
2018-07-28T03:37:12.919Z,83.69
2018-07-28T03:38:12.667Z,83.4
2018-07-28T03:39:12.668Z,83.3
2018-07-28T03:40:12.739Z,82.82
2018-07-28T03:41:12.672Z,82.53
2018-07-28T03:42:12.934Z,82.72
2018-07-28T03:43:12.932Z,82.53
2018-07-28T03:44:12.671Z,82.62
2018-07-28T03:45:12.943Z,83.69
2018-07-28T03:46:12.933Z,83.5
2018-07-28T03:47:12.676Z,83.5
2018-07-28T03:48:12.936Z,83.59
2018-07-28T03:49:13.022Z,83.2
2018-07-28T03:50:13.111Z,83.01
2018-07-28T03:51:12.951Z,82.24
2018-07-28T03:52:12.948Z,81.95
2018-07-28T03:53:13.002Z,81.76
2018-07-28T03:54:12.694Z,81.09
2018-07-28T03:55:12.720Z,80.89
2018-07-28T03:56:12.699Z,80.79
2018-07-28T03:57:12.962Z,81.02
2018-07-28T03:58:12.963Z,82.34
2018-07-28T03:59:12.968Z,82.57
2018-07-28T04:00:12.862Z,83.5
2018-07-28T04:01:12.711Z,82.82
2018-07-28T04:02:12.716Z,82.14
2018-07-28T04:03:13.055Z,82.14
2018-07-28T04:04:13.143Z,80.99
2018-07-28T04:05:12.813Z,81.66
2018-07-28T04:06:12.724Z,84.07
2018-07-28T04:07:12.998Z,85.42
2018-07-28T04:08:13.003Z,85.81
2018-07-28T04:09:12.750Z,85.42
2018-07-28T04:10:12.737Z,83.98
2018-07-28T04:11:13.004Z,83.69
2018-07-28T04:12:13.000Z,82.72
2018-07-28T04:13:12.751Z,82.82
2018-07-28T04:14:13.008Z,82.43
2018-07-28T04:15:12.909Z,82.24
2018-07-28T04:16:13.004Z,82.24
2018-07-28T04:17:13.006Z,82.14
2018-07-28T04:18:13.012Z,82.24
2018-07-28T04:19:12.756Z,82.14
2018-07-28T04:20:13.026Z,82.14
2018-07-28T04:21:12.770Z,81.76
2018-07-28T04:22:12.768Z,81.7
2018-07-28T04:23:12.769Z,81.6
2018-07-28T04:24:12.774Z,81.12
2018-07-28T04:25:12.918Z,81.32
2018-07-28T04:26:13.056Z,81.32
2018-07-28T04:27:12.793Z,80.93
2018-07-28T04:28:13.036Z,80.74
2018-07-28T04:29:12.794Z,80.93
2018-07-28T04:30:12.806Z,80.74
2018-07-28T04:31:12.785Z,80.06
2018-07-28T04:32:13.063Z,79.04
2018-07-28T04:33:12.795Z,78.36
2018-07-28T04:34:13.065Z,76.57
2018-07-28T04:35:13.143Z,75.99
2018-07-28T04:36:12.797Z,75.12
2018-07-28T04:37:13.235Z,74.38
2018-07-28T04:38:13.065Z,73.9
2018-07-28T04:39:13.063Z,73.26
2018-07-28T04:40:13.275Z,72.39
2018-07-28T04:41:13.074Z,71.72
2018-07-28T04:42:13.078Z,72.04
2018-07-28T04:43:13.087Z,71.26
2018-07-28T04:44:12.834Z,70.24
2018-07-28T04:45:12.922Z,68.43
2018-07-28T04:46:12.833Z,67.56
2018-07-28T04:47:12.846Z,66.78
2018-07-28T04:48:12.848Z,66.53
2018-07-28T04:49:13.107Z,65.75
2018-07-28T04:50:12.913Z,65.56
2018-07-28T04:51:13.123Z,65.3
2018-07-28T04:52:12.866Z,64.92
2018-07-28T04:53:13.129Z,64.92
2018-07-28T04:54:12.871Z,64.95
2018-07-28T04:55:13.100Z,63.98
2018-07-28T04:56:12.889Z,63.78
2018-07-28T04:57:12.888Z,63.33
2018-07-28T04:58:12.896Z,62.95
2018-07-28T04:59:13.154Z,62.26
2018-07-28T05:00:13.164Z,62.55
2018-07-28T05:01:13.168Z,61.68
2018-07-28T05:02:12.918Z,61.81
2018-07-28T05:03:12.917Z,61.98
2018-07-28T05:04:12.929Z,62.07
2018-07-28T05:05:13.066Z,62.75
2018-07-28T05:06:12.938Z,62.55
2018-07-28T05:07:13.311Z,61.98
2018-07-28T05:08:12.954Z,61.42
2018-07-28T05:09:13.264Z,61.42
2018-07-28T05:10:13.441Z,60.97
2018-07-28T05:11:13.262Z,60.68
2018-07-28T05:12:13.238Z,60.38
2018-07-28T05:13:12.985Z,59.74
2018-07-28T05:14:13.243Z,59.05
2018-07-28T05:15:13.250Z,58.18
2018-07-28T05:16:13.264Z,58.31
2018-07-28T05:17:13.273Z,57.53
2018-07-28T05:18:13.011Z,57.04
2018-07-28T05:19:13.025Z,56.59
2018-07-28T05:20:13.037Z,56
2018-07-28T05:21:13.036Z,56.1
2018-07-28T05:22:13.046Z,55.71
2018-07-28T05:23:13.043Z,56
2018-07-28T05:24:13.305Z,56
2018-07-28T05:25:13.058Z,55.41
2018-07-28T05:26:13.063Z,55.25
2018-07-28T05:27:13.078Z,55.13
2018-07-28T05:28:13.077Z,54.96
2018-07-28T05:29:13.088Z,54.47
2018-07-28T05:30:13.444Z,54.47
2018-07-28T05:31:13.351Z,54.57
2018-07-28T05:32:13.368Z,54.18
2018-07-28T05:33:13.371Z,54.21
2018-07-28T05:34:13.383Z,53.23
2018-07-28T05:35:13.470Z,53.04
2018-07-28T05:36:13.388Z,52.48
2018-07-28T05:37:13.633Z,52.48
2018-07-28T05:38:13.407Z,52.48
2018-07-28T05:39:13.411Z,52.48
2018-07-28T05:40:13.581Z,53.55
2018-07-28T05:41:13.164Z,54.86
2018-07-28T05:42:13.169Z,56.29
2018-07-28T05:43:13.438Z,57.62
2018-07-28T05:44:13.446Z,58.67
2018-07-28T05:45:13.218Z,60.48
2018-07-28T05:46:13.463Z,61.61
2018-07-28T05:47:13.463Z,62.65
2018-07-28T05:48:13.472Z,63.59
2018-07-28T05:49:13.483Z,64.65
2018-07-28T05:50:13.699Z,65.2
2018-07-28T05:51:13.491Z,65.79
2018-07-28T05:52:13.237Z,65.2
2018-07-28T05:53:13.504Z,65.5
2018-07-28T05:54:13.506Z,64.53
2018-07-28T05:55:13.509Z,63.78
2018-07-28T05:56:13.256Z,61.88
2018-07-28T05:57:13.275Z,60.74
2018-07-28T05:58:13.276Z,59.74
2018-07-28T05:59:13.548Z,58.18
2018-07-28T06:00:13.551Z,56.68
2018-07-28T06:01:13.549Z,55.15
2018-07-28T06:02:13.712Z,54.3
2018-07-28T06:03:13.305Z,53.62
2018-07-28T06:04:13.306Z,53.33
2018-07-28T06:05:13.584Z,52.87
2018-07-28T06:06:13.334Z,51.82
2018-07-28T06:07:13.583Z,51.26
2018-07-28T06:08:13.349Z,50.78
2018-07-28T06:09:13.620Z,50.8
2018-07-28T06:10:13.622Z,50.02
2018-07-28T06:11:13.358Z,50.21
2018-07-28T06:12:13.393Z,50.12
2018-07-28T06:13:13.629Z,49.76
2018-07-28T06:14:13.415Z,48.58
2018-07-28T06:15:13.397Z,48.1
2018-07-28T06:16:13.656Z,47.44
2018-07-28T06:17:13.400Z,47.63
2018-07-28T06:18:13.660Z,46.85
2018-07-28T06:19:13.681Z,47.17
2018-07-28T06:20:13.736Z,47.07
2018-07-28T06:21:13.688Z,46.29
2018-07-28T06:22:13.699Z,46.78
2018-07-28T06:23:13.474Z,47.27
2018-07-28T06:24:13.746Z,47.07
2018-07-28T06:25:13.721Z,46.41
2018-07-28T06:26:13.731Z,46.7
2018-07-28T06:27:13.476Z,46.21
2018-07-28T06:28:13.756Z,45.92
2018-07-28T06:29:13.775Z,45.92
2018-07-28T06:30:13.761Z,45.84
2018-07-28T06:31:13.774Z,45.16
2018-07-28T06:32:13.787Z,45.26
2018-07-28T06:33:13.546Z,44.96
2018-07-28T06:34:13.555Z,45.84
2018-07-28T06:35:13.808Z,46.11
2018-07-28T06:36:13.545Z,46.01
2018-07-28T06:37:13.842Z,46.01
2018-07-28T06:38:13.852Z,44.96
2018-07-28T06:39:13.583Z,45.26
2018-07-28T06:40:13.856Z,45.45
2018-07-28T06:41:13.857Z,45.36
2018-07-28T06:42:13.862Z,45.84
2018-07-28T06:43:13.608Z,45.84
2018-07-28T06:44:13.891Z,46.01
2018-07-28T06:45:13.892Z,46.01
2018-07-28T06:46:13.638Z,45.92
2018-07-28T06:47:13.707Z,46.41
2018-07-28T06:48:13.661Z,46.58
2018-07-28T06:49:13.926Z,46
2018-07-28T06:50:13.923Z,45.8
2018-07-28T06:51:13.671Z,44.87
2018-07-28T06:52:13.691Z,44.2
2018-07-28T06:53:13.971Z,43.05
2018-07-28T06:54:13.706Z,42.19
2018-07-28T06:55:13.708Z,41.03
2018-07-28T06:56:13.975Z,40.76
2018-07-28T06:57:13.979Z,40.29
2018-07-28T06:58:13.996Z,39.51
2018-07-28T06:59:14.007Z,39.43
2018-07-28T07:00:13.755Z,38.85
2018-07-28T07:01:14.022Z,39.17
2018-07-28T07:02:14.025Z,39.74
2018-07-28T07:03:13.777Z,40.48
2018-07-28T07:04:13.785Z,41.45
2018-07-28T07:05:14.056Z,42.58
2018-07-28T07:06:13.806Z,44.2
2018-07-28T07:07:14.074Z,45.16
2018-07-28T07:08:14.076Z,46.01
2018-07-28T07:09:13.829Z,47.44
2018-07-28T07:10:14.092Z,47.9
2018-07-28T07:11:13.847Z,48.97
2018-07-28T07:12:14.109Z,49.93
2018-07-28T07:13:14.124Z,50.48
2018-07-28T07:14:14.131Z,52.99
2018-07-28T07:15:14.148Z,55.4
2018-07-28T07:16:14.145Z,54.82
2018-07-28T07:17:14.154Z,54.79
2018-07-28T07:18:14.156Z,54.5
2018-07-28T07:19:13.905Z,55.74
2018-07-28T07:20:13.910Z,55.83
2018-07-28T07:21:13.916Z,56.41
2018-07-28T07:22:13.925Z,57.78
2018-07-28T07:23:14.183Z,57.75
2018-07-28T07:24:14.212Z,56.97
2018-07-28T07:25:14.202Z,58.04
2018-07-28T07:26:14.204Z,57.82
2018-07-28T07:27:14.215Z,57.07
2018-07-28T07:28:14.226Z,56.29
2018-07-28T07:29:14.224Z,55.41
2018-07-28T07:30:13.978Z,55.32
2018-07-28T07:31:13.983Z,55.13
2018-07-28T07:32:14.003Z,58.04
2018-07-28T07:33:14.006Z,57.95
2018-07-28T07:34:14.258Z,55.22
2018-07-28T07:35:14.282Z,55.03
2018-07-28T07:36:14.360Z,54.86
2018-07-28T07:37:14.275Z,54.08
2018-07-28T07:38:14.279Z,56.12
2018-07-28T07:39:14.295Z,55.57
2018-07-28T07:40:14.033Z,54.01
2018-07-28T07:41:14.041Z,53.52
2018-07-28T07:42:14.311Z,52.94
2018-07-28T07:43:14.324Z,52.65
2018-07-28T07:44:14.314Z,52.65
2018-07-28T07:45:14.317Z,51.99
2018-07-28T07:46:14.322Z,51.77
2018-07-28T07:47:14.487Z,52.55
2018-07-28T07:48:14.100Z,52.75
2018-07-28T07:49:15.157Z,52.75
2018-07-28T07:50:14.350Z,52.26
2018-07-28T07:51:14.360Z,52.36
2018-07-28T07:52:14.369Z,52.55
2018-07-28T07:53:14.107Z,52.55
2018-07-28T07:54:14.378Z,52.94
2018-07-28T07:55:14.430Z,52.94
2018-07-28T07:56:14.392Z,52.72
2018-07-28T07:57:14.390Z,53.01
2018-07-28T07:58:14.136Z,52.92
2018-07-28T07:59:14.405Z,52.82
2018-07-28T08:00:14.150Z,52.92
2018-07-28T08:01:14.435Z,52.82
2018-07-28T08:02:14.422Z,52.98
2018-07-28T08:03:14.442Z,53.67
2018-07-28T08:04:16.038Z,53.77
2018-07-28T08:05:14.437Z,54.05
2018-07-28T08:06:14.450Z,53.96
2018-07-28T08:07:14.450Z,54.25
2018-07-28T08:08:14.465Z,54.15
2018-07-28T08:09:14.458Z,53.67
2018-07-28T08:10:14.475Z,53.57
2018-07-28T08:11:14.471Z,53.77
2018-07-28T08:12:14.226Z,53.45
2018-07-28T08:13:14.265Z,53.35
2018-07-28T08:14:14.513Z,53.74
2018-07-28T08:15:14.250Z,55
2018-07-28T08:16:14.511Z,56.26
2018-07-28T08:17:14.521Z,55.29
2018-07-28T08:18:14.510Z,54.42
2018-07-28T08:19:14.516Z,54.61
2018-07-28T08:20:14.273Z,55.98
2018-07-28T08:21:14.531Z,57.43
2018-07-28T08:22:14.294Z,63.36
2018-07-28T08:23:14.292Z,62.68
2018-07-28T08:24:14.560Z,65.47
2018-07-28T08:25:14.554Z,68.57
2018-07-28T08:26:14.332Z,66.05
2018-07-28T08:27:14.311Z,66.72
2018-07-28T08:28:14.309Z,68.93
2018-07-28T08:29:14.571Z,70.97
2018-07-28T08:30:14.317Z,68.35
2018-07-28T08:31:14.590Z,68.93
2018-07-28T08:32:14.604Z,69.41
2018-07-28T08:33:14.610Z,70.64
2018-07-28T08:34:14.339Z,70.93
2018-07-28T08:35:14.340Z,73.16
2018-07-28T08:36:14.605Z,70.93
2018-07-28T08:37:14.613Z,69.18
2018-07-28T08:38:14.630Z,69.18
2018-07-28T08:39:14.621Z,69.28
2018-07-28T08:40:14.639Z,70.93
2018-07-28T08:41:14.389Z,72.29
2018-07-28T08:42:14.380Z,72.58
2018-07-28T08:43:14.646Z,72.77
2018-07-28T08:44:14.638Z,72.49
2018-07-28T08:45:14.640Z,73.26
2018-07-28T08:46:14.658Z,74.04
2018-07-28T08:47:14.655Z,74.91
2018-07-28T08:48:14.662Z,76.95
2018-07-28T08:49:14.872Z,76.46
2018-07-28T08:50:14.672Z,77.62
2018-07-28T08:51:14.679Z,77.34
2018-07-28T08:52:14.682Z,73.49
2018-07-28T08:53:14.673Z,73.46
2018-07-28T08:54:14.698Z,73.84
2018-07-28T08:55:14.694Z,73.55
2018-07-28T08:56:14.703Z,73.65
2018-07-28T08:57:14.454Z,73.26
2018-07-28T08:58:14.705Z,73.16
2018-07-28T08:59:14.726Z,72.81
2018-07-28T09:00:14.728Z,73.36
2018-07-28T09:01:14.720Z,72.13
2018-07-28T09:02:14.471Z,72.61
2018-07-28T09:03:14.733Z,73.78
2018-07-28T09:04:14.738Z,73.3
2018-07-28T09:05:14.488Z,74.5
2018-07-28T09:06:14.605Z,73.04
2018-07-28T09:07:14.497Z,74.01
2018-07-28T09:08:14.758Z,73.62
2018-07-28T09:09:14.763Z,72.69
2018-07-28T09:10:14.775Z,72.39
2018-07-28T09:11:14.786Z,72.11
2018-07-28T09:12:14.553Z,72.39
2018-07-28T09:13:14.788Z,72.88
2018-07-28T09:14:14.791Z,72.59
2018-07-28T09:15:14.810Z,73.75
2018-07-28T09:16:14.809Z,71.91
2018-07-28T09:17:14.810Z,73.04
2018-07-28T09:18:14.819Z,73.43
2018-07-28T09:19:14.831Z,73.24
2018-07-28T09:20:14.825Z,74.11
2018-07-28T09:21:14.834Z,73.72
2018-07-28T09:22:14.590Z,74.63
2018-07-28T09:23:14.993Z,74.24
2018-07-28T09:24:14.840Z,71.94
2018-07-28T09:25:14.594Z,71.36
2018-07-28T09:26:14.860Z,69.94
2018-07-28T09:27:14.860Z,68.38
2018-07-28T09:28:14.610Z,67.63
2018-07-28T09:29:14.624Z,68.32
2018-07-28T09:30:15.205Z,68.22
2018-07-28T09:31:14.887Z,65.33
2018-07-28T09:32:14.643Z,65.43
2018-07-28T09:33:14.643Z,63.87
2018-07-28T09:34:14.646Z,64.17
2018-07-28T09:35:14.909Z,64.94
2018-07-28T09:36:14.989Z,64.65
2018-07-28T09:37:14.929Z,64.45
2018-07-28T09:38:14.929Z,62.99
2018-07-28T09:39:14.956Z,62.22
2018-07-28T09:40:14.685Z,60.66
2018-07-28T09:41:14.702Z,59.98
2018-07-28T09:42:14.690Z,60.17
2018-07-28T09:43:14.698Z,59.49
2018-07-28T09:44:14.707Z,58.81
2018-07-28T09:45:14.726Z,59.78
2018-07-28T09:46:14.988Z,60.27
2018-07-28T09:47:14.725Z,59.49
2018-07-28T09:48:14.994Z,59.49
2018-07-28T09:49:14.990Z,57.45
2018-07-28T09:50:15.008Z,58.03
2018-07-28T09:51:14.764Z,57.35
2018-07-28T09:52:14.756Z,57.93
2018-07-28T09:53:15.018Z,58.03
2018-07-28T09:54:15.039Z,57.64
2018-07-28T09:55:15.089Z,56.86
2018-07-28T09:56:15.226Z,56.96
2018-07-28T09:57:15.056Z,57.35
2018-07-28T09:58:15.063Z,57.35
2018-07-28T09:59:15.062Z,57.54
2018-07-28T10:00:14.804Z,55.89
2018-07-28T10:01:15.071Z,54.72
2018-07-28T10:02:15.068Z,55.99
2018-07-28T10:03:15.081Z,54.46
2018-07-28T10:04:14.829Z,53.77
2018-07-28T10:05:15.936Z,52.99
2018-07-28T10:06:15.093Z,53.8
2018-07-28T10:07:14.878Z,52.7
2018-07-28T10:08:15.115Z,52.24
2018-07-28T10:09:15.148Z,52.44
2018-07-28T10:10:15.123Z,51.56
2018-07-28T10:11:14.897Z,51.36
2018-07-28T10:12:15.132Z,51.09
2018-07-28T10:13:14.881Z,51.29
2018-07-28T10:14:15.144Z,51.02
2018-07-28T10:15:15.716Z,51.21
2018-07-28T10:16:15.218Z,51.61
2018-07-28T10:17:15.167Z,50.34
2018-07-28T10:18:15.180Z,49.56
2018-07-28T10:19:15.183Z,49.07
2018-07-28T10:20:15.199Z,50.82
2018-07-28T10:21:14.945Z,51.02
2018-07-28T10:22:15.197Z,51.21
2018-07-28T10:23:15.213Z,49.95
2018-07-28T10:24:15.233Z,49.46
2018-07-28T10:25:15.238Z,50.34
2018-07-28T10:26:14.964Z,50.34
2018-07-28T10:27:14.994Z,51.19
2018-07-28T10:28:15.234Z,52.09
2018-07-28T10:29:15.271Z,51.7
2018-07-28T10:30:15.123Z,50.24
2018-07-28T10:31:15.263Z,51.21
2018-07-28T10:32:15.362Z,49.37
2018-07-28T10:33:15.266Z,49.1
2018-07-28T10:34:15.275Z,48.9
2018-07-28T10:35:15.287Z,49.19
2018-07-28T10:36:15.299Z,49.29
2018-07-28T10:37:15.289Z,48.44
2018-07-28T10:38:15.300Z,48.73
2018-07-28T10:39:15.317Z,48.34
2018-07-28T10:40:15.325Z,47.56
2018-07-28T10:41:15.324Z,49.22
2018-07-28T10:42:15.329Z,50.39
2018-07-28T10:43:15.339Z,48.36
2018-07-28T10:44:15.090Z,46.99
2018-07-28T10:45:15.092Z,46.01
2018-07-28T10:46:15.106Z,45.04
2018-07-28T10:47:15.101Z,45.26
2018-07-28T10:48:15.363Z,45.26
2018-07-28T10:49:15.382Z,45.23
2018-07-28T10:50:15.130Z,45.82
2018-07-28T10:51:15.389Z,45.02
2018-07-28T10:52:15.396Z,44.82
2018-07-28T10:53:15.416Z,44.24
2018-07-28T10:54:15.405Z,42.58
2018-07-28T10:55:15.417Z,44.53
2018-07-28T10:56:15.425Z,44.92
2018-07-28T10:57:15.443Z,43.95
2018-07-28T10:58:15.519Z,43.26
2018-07-28T10:59:15.444Z,43.07
2018-07-28T11:00:15.648Z,42.89
2018-07-28T11:01:15.497Z,43.48
2018-07-28T11:02:15.215Z,43.57
2018-07-28T11:03:15.222Z,42.69
2018-07-28T11:04:15.218Z,43.18
2018-07-28T11:05:15.485Z,42.01
2018-07-28T11:06:15.493Z,41.42
2018-07-28T11:07:15.512Z,41.52
2018-07-28T11:08:15.252Z,41.23
2018-07-28T11:09:15.378Z,41.42
2018-07-28T11:10:15.517Z,42.6
2018-07-28T11:11:15.528Z,42.11
2018-07-28T11:12:15.540Z,42.01
2018-07-28T11:13:15.327Z,42.3
2018-07-28T11:14:15.288Z,41.25
2018-07-28T11:15:15.553Z,40.64
2018-07-28T11:16:15.559Z,40.25
2018-07-28T11:17:15.307Z,41.23
2018-07-28T11:18:15.581Z,41.33
2018-07-28T11:19:15.582Z,41.15
2018-07-28T11:20:15.585Z,40.76
2018-07-28T11:21:15.339Z,41.05
2018-07-28T11:22:15.600Z,41.44
2018-07-28T11:23:15.368Z,42.79
2018-07-28T11:24:15.629Z,41.25
2018-07-28T11:25:15.620Z,41.15
2018-07-28T11:26:15.397Z,40.17
2018-07-28T11:27:15.376Z,39.12
2018-07-28T11:28:15.647Z,40.19
2018-07-28T11:29:15.397Z,39.88
2018-07-28T11:30:15.406Z,39.61
2018-07-28T11:31:15.668Z,38.06
2018-07-28T11:32:15.671Z,37.47
2018-07-28T11:33:15.715Z,37.57
2018-07-28T11:34:15.684Z,37.47
2018-07-28T11:35:15.458Z,38.55
2018-07-28T11:36:15.695Z,38.47
2018-07-28T11:37:15.704Z,37.88
2018-07-28T11:38:15.705Z,40.33
2018-07-28T11:39:15.720Z,39.64
2018-07-28T11:40:15.725Z,39.64
2018-07-28T11:41:15.736Z,38.86
2018-07-28T11:42:15.738Z,37.88
2018-07-28T11:43:15.748Z,37.71
2018-07-28T11:44:15.766Z,38.88
2018-07-28T11:45:15.576Z,37.31
2018-07-28T11:46:15.526Z,38.9
2018-07-28T11:47:15.787Z,38.02
2018-07-28T11:48:15.795Z,38.23
2018-07-28T11:49:15.563Z,37.54
2018-07-28T11:50:15.795Z,37.94
2018-07-28T11:51:15.561Z,38.13
2018-07-28T11:52:15.813Z,36.66
2018-07-28T11:53:15.574Z,38.72
2018-07-28T11:54:15.595Z,38.04
2018-07-28T11:55:15.839Z,38.53
2018-07-28T11:56:15.846Z,37.84
2018-07-28T11:57:15.887Z,37.82
2018-07-28T11:58:15.694Z,39.11
2018-07-28T11:59:15.872Z,39.39
2018-07-28T12:00:15.883Z,37.92
2018-07-28T12:01:15.884Z,37.65
2018-07-28T12:02:15.627Z,39.51
2018-07-28T12:03:15.641Z,39.39
2018-07-28T12:04:15.658Z,39.39
2018-07-28T12:05:15.922Z,39.41
2018-07-28T12:06:15.920Z,38.92
2018-07-28T12:07:15.686Z,39.22
2018-07-28T12:08:15.937Z,38.62
2018-07-28T12:09:15.966Z,38.92
2018-07-28T12:10:15.696Z,37.54
2018-07-28T12:11:15.745Z,37.66
2018-07-28T12:12:15.969Z,36.78
2018-07-28T12:13:15.974Z,36.78
2018-07-28T12:14:15.984Z,37.84
2018-07-28T12:15:15.736Z,37.94
2018-07-28T12:16:15.739Z,37.45
2018-07-28T12:17:16.013Z,38.02
2018-07-28T12:18:15.864Z,37.63
2018-07-28T12:19:16.021Z,38.51
2018-07-28T12:20:15.773Z,38.62
2018-07-28T12:21:16.097Z,38.23
2018-07-28T12:22:16.058Z,37.84
2018-07-28T12:23:15.806Z,37.35
2018-07-28T12:24:15.798Z,36.98
2018-07-28T12:25:16.067Z,36.29
2018-07-28T12:26:15.832Z,37.66
2018-07-28T12:27:16.112Z,37.46
2018-07-28T12:28:16.095Z,39.33
2018-07-28T12:29:16.107Z,37.68
2018-07-28T12:30:16.109Z,38.17
2018-07-28T12:31:16.115Z,38.07
2018-07-28T12:32:15.862Z,39.45
2018-07-28T12:33:15.878Z,36.01
2018-07-28T12:34:16.165Z,35.7
2018-07-28T12:35:15.889Z,36.21
2018-07-28T12:36:16.172Z,36.01
2018-07-28T12:37:16.166Z,35.82
2018-07-28T12:38:16.179Z,35.83
2018-07-28T12:39:15.925Z,35.05
2018-07-28T12:40:16.182Z,35.23
2018-07-28T12:41:16.189Z,35.62
2018-07-28T12:42:16.204Z,36.09
2018-07-28T12:43:15.947Z,36.66
2018-07-28T12:44:16.214Z,38.02
2018-07-28T12:45:15.964Z,38.49
2018-07-28T12:46:15.971Z,38.96
2018-07-28T12:47:16.016Z,38.96
2018-07-28T12:48:16.250Z,38.75
2018-07-28T12:49:16.001Z,39.14
2018-07-28T12:50:16.000Z,38.45
2018-07-28T12:51:16.257Z,38.94
2018-07-28T12:52:16.274Z,40.01
2018-07-28T12:53:16.285Z,40.21
2018-07-28T12:54:16.290Z,39.9
2018-07-28T12:55:16.446Z,40.19